sensor_id;sensor_type;location;lat;lon;timestamp;temperature;humidity
26081;DHT22;13991;51.174;4.438;2022-08-20T00:00:14;20.30;99.90
26081;DHT22;13991;51.174;4.438;2022-08-20T00:02:46;20.30;99.90
26081;DHT22;13991;51.174;4.438;2022-08-20T00:05:14;20.10;99.90
26081;DHT22;13991;51.174;4.438;2022-08-20T00:07:40;19.90;99.90
26081;DHT22;13991;51.174;4.438;2022-08-20T00:10:07;20.00;99.90
26081;DHT22;13991;51.174;4.438;2022-08-20T00:12:35;20.10;99.90
26081;DHT22;13991;51.174;4.438;2022-08-20T00:15:04;19.90;99.90
26081;DHT22;13991;51.174;4.438;2022-08-20T00:17:30;19.80;99.90
26081;DHT22;13991;51.174;4.438;2022-08-20T00:20:08;19.70;99.90
26081;DHT22;13991;51.174;4.438;2022-08-20T00:22:34;19.70;99.90
26081;DHT22;13991;51.174;4.438;2022-08-20T00:25:01;19.70;99.90
26081;DHT22;13991;51.174;4.438;2022-08-20T00:27:27;19.70;99.90
26081;DHT22;13991;51.174;4.438;2022-08-20T00:29:52;19.80;99.90
26081;DHT22;13991;51.174;4.438;2022-08-20T00:32:18;19.90;99.90
26081;DHT22;13991;51.174;4.438;2022-08-20T00:34:44;19.80;99.90
26081;DHT22;13991;51.174;4.438;2022-08-20T00:37:09;19.80;99.90
26081;DHT22;13991;51.174;4.438;2022-08-20T00:39:35;19.90;99.90
26081;DHT22;13991;51.174;4.438;2022-08-20T00:42:01;19.80;99.90
26081;DHT22;13991;51.174;4.438;2022-08-20T00:44:27;19.80;99.90
26081;DHT22;13991;51.174;4.438;2022-08-20T00:46:53;19.60;99.90
26081;DHT22;13991;51.174;4.438;2022-08-20T00:49:29;19.50;99.90
26081;DHT22;13991;51.174;4.438;2022-08-20T00:52:15;19.50;99.90
26081;DHT22;13991;51.174;4.438;2022-08-20T00:54:54;19.50;99.90
26081;DHT22;13991;51.174;4.438;2022-08-20T00:57:34;19.60;99.90
26081;DHT22;13991;51.174;4.438;2022-08-20T01:00:06;19.60;99.90
26081;DHT22;13991;51.174;4.438;2022-08-20T01:02:33;19.60;99.90
26081;DHT22;13991;51.174;4.438;2022-08-20T01:05:00;19.70;99.90
26081;DHT22;13991;51.174;4.438;2022-08-20T01:07:28;19.70;99.90
26081;DHT22;13991;51.174;4.438;2022-08-20T01:10:04;19.70;99.90
26081;DHT22;13991;51.174;4.438;2022-08-20T01:12:30;19.70;99.90
26081;DHT22;13991;51.174;4.438;2022-08-20T01:14:59;19.60;99.90
26081;DHT22;13991;51.174;4.438;2022-08-20T01:17:28;19.60;99.90
26081;DHT22;13991;51.174;4.438;2022-08-20T01:20:11;19.70;99.90
26081;DHT22;13991;51.174;4.438;2022-08-20T01:25:52;19.80;99.90
26081;DHT22;13991;51.174;4.438;2022-08-20T01:28:24;19.70;99.90
26081;DHT22;13991;51.174;4.438;2022-08-20T01:30:52;19.60;99.90
26081;DHT22;13991;51.174;4.438;2022-08-20T01:33:19;19.70;99.90
26081;DHT22;13991;51.174;4.438;2022-08-20T01:35:47;19.70;99.90
26081;DHT22;13991;51.174;4.438;2022-08-20T01:38:15;19.50;99.90
26081;DHT22;13991;51.174;4.438;2022-08-20T01:41:12;19.50;99.90
26081;DHT22;13991;51.174;4.438;2022-08-20T01:43:41;19.60;99.90
26081;DHT22;13991;51.174;4.438;2022-08-20T01:46:08;19.70;99.90
26081;DHT22;13991;51.174;4.438;2022-08-20T01:48:36;19.60;99.90
26081;DHT22;13991;51.174;4.438;2022-08-20T01:51:12;19.70;99.90
26081;DHT22;13991;51.174;4.438;2022-08-20T01:53:45;19.70;99.90
26081;DHT22;13991;51.174;4.438;2022-08-20T01:56:14;19.70;99.90
26081;DHT22;13991;51.174;4.438;2022-08-20T01:58:48;19.60;99.90
26081;DHT22;13991;51.174;4.438;2022-08-20T02:01:28;19.50;99.90
26081;DHT22;13991;51.174;4.438;2022-08-20T02:03:55;19.50;99.90
26081;DHT22;13991;51.174;4.438;2022-08-20T02:06:23;19.50;99.90
26081;DHT22;13991;51.174;4.438;2022-08-20T02:08:54;19.50;99.90
26081;DHT22;13991;51.174;4.438;2022-08-20T02:11:21;19.50;99.90
26081;DHT22;13991;51.174;4.438;2022-08-20T02:13:47;19.60;99.90
26081;DHT22;13991;51.174;4.438;2022-08-20T02:16:26;19.50;99.90
26081;DHT22;13991;51.174;4.438;2022-08-20T02:19:09;19.60;99.90
26081;DHT22;13991;51.174;4.438;2022-08-20T02:21:43;19.50;99.90
26081;DHT22;13991;51.174;4.438;2022-08-20T02:24:10;19.40;99.90
26081;DHT22;13991;51.174;4.438;2022-08-20T02:26:37;19.30;99.90
26081;DHT22;13991;51.174;4.438;2022-08-20T02:29:09;19.20;99.90
26081;DHT22;13991;51.174;4.438;2022-08-20T02:31:36;19.10;99.90
26081;DHT22;13991;51.174;4.438;2022-08-20T02:34:04;19.20;99.90
26081;DHT22;13991;51.174;4.438;2022-08-20T02:36:30;19.20;99.90
26081;DHT22;13991;51.174;4.438;2022-08-20T02:38:56;19.30;99.90
26081;DHT22;13991;51.174;4.438;2022-08-20T02:41:22;19.30;99.90
26081;DHT22;13991;51.174;4.438;2022-08-20T02:43:50;19.30;99.90
26081;DHT22;13991;51.174;4.438;2022-08-20T02:46:17;19.10;99.90
26081;DHT22;13991;51.174;4.438;2022-08-20T02:48:45;19.00;99.90
26081;DHT22;13991;51.174;4.438;2022-08-20T02:51:11;18.90;99.90
26081;DHT22;13991;51.174;4.438;2022-08-20T02:53:38;18.90;99.90
26081;DHT22;13991;51.174;4.438;2022-08-20T02:56:07;19.00;99.90
26081;DHT22;13991;51.174;4.438;2022-08-20T02:58:33;19.00;99.90
26081;DHT22;13991;51.174;4.438;2022-08-20T03:01:00;19.10;99.90
26081;DHT22;13991;51.174;4.438;2022-08-20T03:03:28;19.10;99.90
26081;DHT22;13991;51.174;4.438;2022-08-20T03:05:57;19.10;99.90
26081;DHT22;13991;51.174;4.438;2022-08-20T03:08:25;19.20;99.90
26081;DHT22;13991;51.174;4.438;2022-08-20T03:10:51;19.30;99.90
26081;DHT22;13991;51.174;4.438;2022-08-20T03:13:18;19.30;99.90
26081;DHT22;13991;51.174;4.438;2022-08-20T03:15:47;19.30;99.90
26081;DHT22;13991;51.174;4.438;2022-08-20T03:18:16;19.30;99.90
26081;DHT22;13991;51.174;4.438;2022-08-20T03:20:42;19.20;99.90
26081;DHT22;13991;51.174;4.438;2022-08-20T03:23:08;19.20;99.90
26081;DHT22;13991;51.174;4.438;2022-08-20T03:25:34;19.20;99.90
26081;DHT22;13991;51.174;4.438;2022-08-20T03:28:00;19.20;99.90
26081;DHT22;13991;51.174;4.438;2022-08-20T03:30:27;19.20;99.90
26081;DHT22;13991;51.174;4.438;2022-08-20T03:32:54;19.10;99.90
26081;DHT22;13991;51.174;4.438;2022-08-20T03:35:22;19.10;99.90
26081;DHT22;13991;51.174;4.438;2022-08-20T03:37:47;19.00;99.90
26081;DHT22;13991;51.174;4.438;2022-08-20T03:40:18;18.90;99.90
26081;DHT22;13991;51.174;4.438;2022-08-20T03:42:44;19.00;99.90
26081;DHT22;13991;51.174;4.438;2022-08-20T03:45:12;19.10;99.90
26081;DHT22;13991;51.174;4.438;2022-08-20T03:47:40;19.10;99.90
26081;DHT22;13991;51.174;4.438;2022-08-20T03:50:08;19.00;99.90
26081;DHT22;13991;51.174;4.438;2022-08-20T03:52:34;18.80;99.90
26081;DHT22;13991;51.174;4.438;2022-08-20T03:55:00;18.70;99.90
26081;DHT22;13991;51.174;4.438;2022-08-20T03:57:28;18.80;99.90
26081;DHT22;13991;51.174;4.438;2022-08-20T03:59:56;19.00;99.90
26081;DHT22;13991;51.174;4.438;2022-08-20T04:02:22;19.00;99.90
26081;DHT22;13991;51.174;4.438;2022-08-20T04:04:50;19.00;99.90
26081;DHT22;13991;51.174;4.438;2022-08-20T04:07:19;19.00;99.90
26081;DHT22;13991;51.174;4.438;2022-08-20T04:09:55;19.10;99.90
26081;DHT22;13991;51.174;4.438;2022-08-20T04:12:30;19.10;99.90
26081;DHT22;13991;51.174;4.438;2022-08-20T04:14:57;19.10;99.90
26081;DHT22;13991;51.174;4.438;2022-08-20T04:17:28;19.20;99.90
26081;DHT22;13991;51.174;4.438;2022-08-20T04:19:55;19.10;99.90
26081;DHT22;13991;51.174;4.438;2022-08-20T04:22:20;19.00;99.90
26081;DHT22;13991;51.174;4.438;2022-08-20T04:24:47;19.00;99.90
26081;DHT22;13991;51.174;4.438;2022-08-20T04:27:15;18.90;99.90
26081;DHT22;13991;51.174;4.438;2022-08-20T04:29:40;18.90;99.90
26081;DHT22;13991;51.174;4.438;2022-08-20T04:32:10;18.90;99.90
26081;DHT22;13991;51.174;4.438;2022-08-20T04:34:37;18.60;99.90
26081;DHT22;13991;51.174;4.438;2022-08-20T04:37:14;18.70;99.90
26081;DHT22;13991;51.174;4.438;2022-08-20T04:39:42;18.80;99.90
26081;DHT22;13991;51.174;4.438;2022-08-20T04:42:33;18.80;99.90
26081;DHT22;13991;51.174;4.438;2022-08-20T04:45:00;18.90;99.90
26081;DHT22;13991;51.174;4.438;2022-08-20T04:47:32;18.80;99.90
26081;DHT22;13991;51.174;4.438;2022-08-20T04:50:22;18.80;99.90
26081;DHT22;13991;51.174;4.438;2022-08-20T04:52:58;18.80;99.90
26081;DHT22;13991;51.174;4.438;2022-08-20T04:55:24;18.80;99.90
26081;DHT22;13991;51.174;4.438;2022-08-20T04:57:50;18.80;99.90
26081;DHT22;13991;51.174;4.438;2022-08-20T05:00:18;18.90;99.90
26081;DHT22;13991;51.174;4.438;2022-08-20T05:02:49;18.80;99.90
26081;DHT22;13991;51.174;4.438;2022-08-20T05:05:20;18.60;99.90
26081;DHT22;13991;51.174;4.438;2022-08-20T05:08:00;18.80;99.90
26081;DHT22;13991;51.174;4.438;2022-08-20T05:10:28;18.80;99.90
26081;DHT22;13991;51.174;4.438;2022-08-20T05:12:54;18.80;99.90
26081;DHT22;13991;51.174;4.438;2022-08-20T05:15:23;18.80;99.90
26081;DHT22;13991;51.174;4.438;2022-08-20T05:17:59;18.80;99.90
26081;DHT22;13991;51.174;4.438;2022-08-20T05:20:28;18.90;99.90
26081;DHT22;13991;51.174;4.438;2022-08-20T05:23:00;19.00;99.90
26081;DHT22;13991;51.174;4.438;2022-08-20T05:25:35;19.00;99.90
26081;DHT22;13991;51.174;4.438;2022-08-20T05:28:09;18.80;99.90
26081;DHT22;13991;51.174;4.438;2022-08-20T05:31:01;18.90;99.90
26081;DHT22;13991;51.174;4.438;2022-08-20T05:33:38;18.70;99.90
26081;DHT22;13991;51.174;4.438;2022-08-20T05:36:08;18.90;99.90
26081;DHT22;13991;51.174;4.438;2022-08-20T05:38:44;19.00;99.90
26081;DHT22;13991;51.174;4.438;2022-08-20T05:41:15;19.00;99.90
26081;DHT22;13991;51.174;4.438;2022-08-20T05:43:48;19.00;99.90
26081;DHT22;13991;51.174;4.438;2022-08-20T05:46:19;19.00;99.90
26081;DHT22;13991;51.174;4.438;2022-08-20T05:48:50;19.00;99.90
26081;DHT22;13991;51.174;4.438;2022-08-20T05:51:29;19.00;99.90
26081;DHT22;13991;51.174;4.438;2022-08-20T05:54:04;19.00;99.90
26081;DHT22;13991;51.174;4.438;2022-08-20T05:56:34;19.00;99.90
26081;DHT22;13991;51.174;4.438;2022-08-20T05:59:08;19.00;99.90
26081;DHT22;13991;51.174;4.438;2022-08-20T06:01:37;19.00;99.90
26081;DHT22;13991;51.174;4.438;2022-08-20T06:04:03;19.10;99.90
26081;DHT22;13991;51.174;4.438;2022-08-20T06:06:48;19.10;99.90
26081;DHT22;13991;51.174;4.438;2022-08-20T06:09:19;19.20;99.90
26081;DHT22;13991;51.174;4.438;2022-08-20T06:11:46;19.40;99.90
26081;DHT22;13991;51.174;4.438;2022-08-20T06:14:16;19.60;99.90
26081;DHT22;13991;51.174;4.438;2022-08-20T06:16:47;19.70;99.90
26081;DHT22;13991;51.174;4.438;2022-08-20T06:19:16;19.70;99.90
26081;DHT22;13991;51.174;4.438;2022-08-20T06:21:51;19.70;99.90
26081;DHT22;13991;51.174;4.438;2022-08-20T06:24:23;19.40;99.90
26081;DHT22;13991;51.174;4.438;2022-08-20T06:27:01;19.50;99.90
26081;DHT22;13991;51.174;4.438;2022-08-20T06:29:30;19.60;99.90
26081;DHT22;13991;51.174;4.438;2022-08-20T06:31:58;19.60;99.90
26081;DHT22;13991;51.174;4.438;2022-08-20T06:34:34;19.70;99.90
26081;DHT22;13991;51.174;4.438;2022-08-20T06:37:01;19.80;99.90
26081;DHT22;13991;51.174;4.438;2022-08-20T06:39:29;19.80;99.90
26081;DHT22;13991;51.174;4.438;2022-08-20T06:41:58;19.70;99.90
26081;DHT22;13991;51.174;4.438;2022-08-20T06:44:29;19.70;99.90
26081;DHT22;13991;51.174;4.438;2022-08-20T06:47:07;19.70;99.90
26081;DHT22;13991;51.174;4.438;2022-08-20T06:49:43;19.60;99.90
26081;DHT22;13991;51.174;4.438;2022-08-20T06:52:15;19.50;99.90
26081;DHT22;13991;51.174;4.438;2022-08-20T06:54:58;19.40;99.90
26081;DHT22;13991;51.174;4.438;2022-08-20T06:57:24;19.60;99.90
26081;DHT22;13991;51.174;4.438;2022-08-20T07:00:03;19.40;99.90
26081;DHT22;13991;51.174;4.438;2022-08-20T07:02:32;19.40;99.90
26081;DHT22;13991;51.174;4.438;2022-08-20T07:05:00;19.60;99.90
26081;DHT22;13991;51.174;4.438;2022-08-20T07:07:28;19.80;99.90
26081;DHT22;13991;51.174;4.438;2022-08-20T07:10:23;19.90;99.90
26081;DHT22;13991;51.174;4.438;2022-08-20T07:12:52;19.80;99.90
26081;DHT22;13991;51.174;4.438;2022-08-20T07:15:21;19.70;99.90
26081;DHT22;13991;51.174;4.438;2022-08-20T07:17:59;19.80;99.90
26081;DHT22;13991;51.174;4.438;2022-08-20T07:20:28;19.80;99.90
26081;DHT22;13991;51.174;4.438;2022-08-20T07:22:56;19.70;99.90
26081;DHT22;13991;51.174;4.438;2022-08-20T07:25:26;19.50;99.90
26081;DHT22;13991;51.174;4.438;2022-08-20T07:28:02;19.30;99.90
26081;DHT22;13991;51.174;4.438;2022-08-20T07:30:42;19.50;99.90
26081;DHT22;13991;51.174;4.438;2022-08-20T07:33:28;19.70;99.90
26081;DHT22;13991;51.174;4.438;2022-08-20T07:35:59;19.90;99.90
26081;DHT22;13991;51.174;4.438;2022-08-20T07:38:35;20.10;99.90
26081;DHT22;13991;51.174;4.438;2022-08-20T07:41:08;20.10;99.90
26081;DHT22;13991;51.174;4.438;2022-08-20T07:43:56;20.10;99.90
26081;DHT22;13991;51.174;4.438;2022-08-20T07:46:24;20.10;99.90
26081;DHT22;13991;51.174;4.438;2022-08-20T07:48:51;20.30;99.90
26081;DHT22;13991;51.174;4.438;2022-08-20T07:51:21;20.40;99.90
26081;DHT22;13991;51.174;4.438;2022-08-20T07:53:50;20.40;99.90
26081;DHT22;13991;51.174;4.438;2022-08-20T07:56:28;20.40;99.90
26081;DHT22;13991;51.174;4.438;2022-08-20T07:58:58;20.60;99.90
26081;DHT22;13991;51.174;4.438;2022-08-20T08:01:30;20.50;99.90
26081;DHT22;13991;51.174;4.438;2022-08-20T08:03:58;20.60;99.90
26081;DHT22;13991;51.174;4.438;2022-08-20T08:06:26;20.70;99.90
26081;DHT22;13991;51.174;4.438;2022-08-20T08:11:27;21.10;99.90
26081;DHT22;13991;51.174;4.438;2022-08-20T08:13:54;21.10;99.90
26081;DHT22;13991;51.174;4.438;2022-08-20T08:16:19;21.10;99.90
26081;DHT22;13991;51.174;4.438;2022-08-20T08:18:55;21.20;99.90
26081;DHT22;13991;51.174;4.438;2022-08-20T08:21:24;21.20;99.90
26081;DHT22;13991;51.174;4.438;2022-08-20T08:24:01;21.50;99.90
26081;DHT22;13991;51.174;4.438;2022-08-20T08:26:30;21.40;99.90
26081;DHT22;13991;51.174;4.438;2022-08-20T08:28:59;21.20;99.90
26081;DHT22;13991;51.174;4.438;2022-08-20T08:31:32;21.50;99.90
26081;DHT22;13991;51.174;4.438;2022-08-20T08:34:45;21.60;99.90
26081;DHT22;13991;51.174;4.438;2022-08-20T08:37:12;21.90;99.90
26081;DHT22;13991;51.174;4.438;2022-08-20T08:39:38;21.70;99.90
26081;DHT22;13991;51.174;4.438;2022-08-20T08:42:25;21.80;99.90
26081;DHT22;13991;51.174;4.438;2022-08-20T08:44:56;21.90;99.90
26081;DHT22;13991;51.174;4.438;2022-08-20T08:47:31;22.00;99.90
26081;DHT22;13991;51.174;4.438;2022-08-20T08:50:02;22.20;99.90
26081;DHT22;13991;51.174;4.438;2022-08-20T08:52:36;22.40;99.90
26081;DHT22;13991;51.174;4.438;2022-08-20T08:55:10;22.30;99.90
26081;DHT22;13991;51.174;4.438;2022-08-20T08:57:36;22.30;99.90
26081;DHT22;13991;51.174;4.438;2022-08-20T09:00:07;22.50;99.90
26081;DHT22;13991;51.174;4.438;2022-08-20T09:02:37;22.70;99.90
26081;DHT22;13991;51.174;4.438;2022-08-20T09:05:13;22.70;99.90
26081;DHT22;13991;51.174;4.438;2022-08-20T09:10:33;22.70;99.90
26081;DHT22;13991;51.174;4.438;2022-08-20T09:13:00;22.70;99.90
26081;DHT22;13991;51.174;4.438;2022-08-20T09:15:26;23.00;99.90
26081;DHT22;13991;51.174;4.438;2022-08-20T09:17:52;22.90;99.90
26081;DHT22;13991;51.174;4.438;2022-08-20T09:20:20;22.90;99.90
26081;DHT22;13991;51.174;4.438;2022-08-20T09:22:46;22.80;99.90
26081;DHT22;13991;51.174;4.438;2022-08-20T09:25:12;23.00;99.90
26081;DHT22;13991;51.174;4.438;2022-08-20T09:27:38;23.10;99.90
26081;DHT22;13991;51.174;4.438;2022-08-20T09:30:07;23.00;99.90
26081;DHT22;13991;51.174;4.438;2022-08-20T09:32:36;23.10;99.90
26081;DHT22;13991;51.174;4.438;2022-08-20T09:35:04;23.30;99.90
26081;DHT22;13991;51.174;4.438;2022-08-20T09:37:40;23.20;99.90
26081;DHT22;13991;51.174;4.438;2022-08-20T09:43:30;23.40;99.90
26081;DHT22;13991;51.174;4.438;2022-08-20T09:45:56;23.30;99.90
26081;DHT22;13991;51.174;4.438;2022-08-20T09:48:21;23.60;99.90
26081;DHT22;13991;51.174;4.438;2022-08-20T09:50:48;23.60;99.90
26081;DHT22;13991;51.174;4.438;2022-08-20T09:53:14;23.50;99.90
26081;DHT22;13991;51.174;4.438;2022-08-20T09:55:44;23.80;99.90
26081;DHT22;13991;51.174;4.438;2022-08-20T09:58:20;23.50;99.20
26081;DHT22;13991;51.174;4.438;2022-08-20T10:00:47;23.70;98.90
26081;DHT22;13991;51.174;4.438;2022-08-20T10:03:13;23.90;98.20
26081;DHT22;13991;51.174;4.438;2022-08-20T10:05:40;24.00;95.50
26081;DHT22;13991;51.174;4.438;2022-08-20T10:08:08;24.20;95.80
26081;DHT22;13991;51.174;4.438;2022-08-20T10:10:34;24.20;96.50
26081;DHT22;13991;51.174;4.438;2022-08-20T10:13:01;24.00;98.00
26081;DHT22;13991;51.174;4.438;2022-08-20T10:15:28;24.30;99.00
26081;DHT22;13991;51.174;4.438;2022-08-20T10:17:54;24.70;99.90
26081;DHT22;13991;51.174;4.438;2022-08-20T10:20:22;24.80;99.90
26081;DHT22;13991;51.174;4.438;2022-08-20T10:22:49;24.70;99.30
26081;DHT22;13991;51.174;4.438;2022-08-20T10:25:16;24.70;99.90
26081;DHT22;13991;51.174;4.438;2022-08-20T10:27:49;24.60;98.90
26081;DHT22;13991;51.174;4.438;2022-08-20T10:30:14;24.70;99.10
26081;DHT22;13991;51.174;4.438;2022-08-20T10:32:45;24.70;99.60
26081;DHT22;13991;51.174;4.438;2022-08-20T10:35:16;24.40;98.80
26081;DHT22;13991;51.174;4.438;2022-08-20T10:38:06;24.30;99.70
26081;DHT22;13991;51.174;4.438;2022-08-20T10:40:46;24.10;99.30
26081;DHT22;13991;51.174;4.438;2022-08-20T10:43:22;24.20;98.80
26081;DHT22;13991;51.174;4.438;2022-08-20T10:45:53;24.10;98.10
26081;DHT22;13991;51.174;4.438;2022-08-20T10:48:19;24.30;98.10
26081;DHT22;13991;51.174;4.438;2022-08-20T10:50:45;24.10;97.10
26081;DHT22;13991;51.174;4.438;2022-08-20T10:53:12;24.00;98.10
26081;DHT22;13991;51.174;4.438;2022-08-20T10:55:43;23.80;97.70
26081;DHT22;13991;51.174;4.438;2022-08-20T10:58:09;23.40;98.50
26081;DHT22;13991;51.174;4.438;2022-08-20T11:00:44;23.40;99.40
26081;DHT22;13991;51.174;4.438;2022-08-20T11:03:19;23.20;99.50
26081;DHT22;13991;51.174;4.438;2022-08-20T11:06:04;23.00;99.30
26081;DHT22;13991;51.174;4.438;2022-08-20T11:08:31;23.00;99.90
26081;DHT22;13991;51.174;4.438;2022-08-20T11:10:57;23.20;99.30
26081;DHT22;13991;51.174;4.438;2022-08-20T11:13:28;23.30;98.50
26081;DHT22;13991;51.174;4.438;2022-08-20T11:15:55;23.30;98.50
26081;DHT22;13991;51.174;4.438;2022-08-20T11:18:35;23.50;98.30
26081;DHT22;13991;51.174;4.438;2022-08-20T11:21:13;23.90;98.00
26081;DHT22;13991;51.174;4.438;2022-08-20T11:23:39;24.10;95.80
26081;DHT22;13991;51.174;4.438;2022-08-20T11:26:05;24.10;95.10
26081;DHT22;13991;51.174;4.438;2022-08-20T11:28:37;24.10;94.40
26081;DHT22;13991;51.174;4.438;2022-08-20T11:31:03;24.00;94.90
26081;DHT22;13991;51.174;4.438;2022-08-20T11:33:30;24.10;95.20
26081;DHT22;13991;51.174;4.438;2022-08-20T11:35:58;24.10;95.60
26081;DHT22;13991;51.174;4.438;2022-08-20T11:38:24;24.50;97.60
26081;DHT22;13991;51.174;4.438;2022-08-20T11:40:50;24.70;96.60
26081;DHT22;13991;51.174;4.438;2022-08-20T11:43:16;24.80;95.00
26081;DHT22;13991;51.174;4.438;2022-08-20T11:45:51;24.90;95.80
26081;DHT22;13991;51.174;4.438;2022-08-20T11:48:22;25.10;94.50
26081;DHT22;13991;51.174;4.438;2022-08-20T11:50:54;25.00;93.40
26081;DHT22;13991;51.174;4.438;2022-08-20T11:53:27;25.20;94.30
26081;DHT22;13991;51.174;4.438;2022-08-20T11:55:54;25.50;92.50
26081;DHT22;13991;51.174;4.438;2022-08-20T11:58:22;25.70;91.10
26081;DHT22;13991;51.174;4.438;2022-08-20T12:01:14;26.00;91.80
26081;DHT22;13991;51.174;4.438;2022-08-20T12:03:43;26.00;90.90
26081;DHT22;13991;51.174;4.438;2022-08-20T12:06:12;25.80;91.60
26081;DHT22;13991;51.174;4.438;2022-08-20T12:08:49;25.50;91.30
26081;DHT22;13991;51.174;4.438;2022-08-20T12:11:14;25.60;92.90
26081;DHT22;13991;51.174;4.438;2022-08-20T12:13:40;26.10;92.80
26081;DHT22;13991;51.174;4.438;2022-08-20T12:16:06;26.40;90.80
26081;DHT22;13991;51.174;4.438;2022-08-20T12:18:32;26.00;89.30
26081;DHT22;13991;51.174;4.438;2022-08-20T12:20:59;26.20;91.30
26081;DHT22;13991;51.174;4.438;2022-08-20T12:23:29;25.90;90.60
26081;DHT22;13991;51.174;4.438;2022-08-20T12:26:02;25.60;90.00
26081;DHT22;13991;51.174;4.438;2022-08-20T12:28:31;25.80;90.00
26081;DHT22;13991;51.174;4.438;2022-08-20T12:30:58;25.70;90.00
26081;DHT22;13991;51.174;4.438;2022-08-20T12:33:26;25.60;89.40
26081;DHT22;13991;51.174;4.438;2022-08-20T12:35:52;25.60;90.50
26081;DHT22;13991;51.174;4.438;2022-08-20T12:38:18;25.60;90.20
26081;DHT22;13991;51.174;4.438;2022-08-20T12:40:43;25.10;88.00
26081;DHT22;13991;51.174;4.438;2022-08-20T12:43:10;25.20;89.50
26081;DHT22;13991;51.174;4.438;2022-08-20T12:45:38;25.40;88.90
26081;DHT22;13991;51.174;4.438;2022-08-20T12:48:08;25.20;85.90
26081;DHT22;13991;51.174;4.438;2022-08-20T12:50:35;25.30;86.00
26081;DHT22;13991;51.174;4.438;2022-08-20T12:53:02;25.30;85.30
26081;DHT22;13991;51.174;4.438;2022-08-20T12:55:30;25.60;86.40
26081;DHT22;13991;51.174;4.438;2022-08-20T12:57:58;25.60;84.50
26081;DHT22;13991;51.174;4.438;2022-08-20T13:00:30;25.30;85.30
26081;DHT22;13991;51.174;4.438;2022-08-20T13:03:01;24.90;87.20
26081;DHT22;13991;51.174;4.438;2022-08-20T13:05:30;25.10;86.50
26081;DHT22;13991;51.174;4.438;2022-08-20T13:07:57;25.40;86.10
26081;DHT22;13991;51.174;4.438;2022-08-20T13:10:26;25.60;88.90
26081;DHT22;13991;51.174;4.438;2022-08-20T13:13:17;25.80;88.20
26081;DHT22;13991;51.174;4.438;2022-08-20T13:15:48;25.90;85.70
26081;DHT22;13991;51.174;4.438;2022-08-20T13:18:17;25.90;86.90
26081;DHT22;13991;51.174;4.438;2022-08-20T13:20:47;26.30;87.50
26081;DHT22;13991;51.174;4.438;2022-08-20T13:23:13;26.30;86.60
26081;DHT22;13991;51.174;4.438;2022-08-20T13:25:42;26.20;84.50
26081;DHT22;13991;51.174;4.438;2022-08-20T13:28:28;25.80;85.20
26081;DHT22;13991;51.174;4.438;2022-08-20T13:30:54;25.30;86.80
26081;DHT22;13991;51.174;4.438;2022-08-20T13:33:26;24.90;90.30
26081;DHT22;13991;51.174;4.438;2022-08-20T13:36:12;24.50;91.40
26081;DHT22;13991;51.174;4.438;2022-08-20T13:38:42;24.50;91.80
26081;DHT22;13991;51.174;4.438;2022-08-20T13:41:27;24.90;91.60
26081;DHT22;13991;51.174;4.438;2022-08-20T13:43:53;24.90;91.50
26081;DHT22;13991;51.174;4.438;2022-08-20T13:46:21;24.70;91.20
26081;DHT22;13991;51.174;4.438;2022-08-20T13:48:48;24.60;91.00
26081;DHT22;13991;51.174;4.438;2022-08-20T13:51:18;24.50;91.60
26081;DHT22;13991;51.174;4.438;2022-08-20T13:54:07;24.40;91.70
26081;DHT22;13991;51.174;4.438;2022-08-20T13:56:44;24.30;92.70
26081;DHT22;13991;51.174;4.438;2022-08-20T13:59:17;24.20;92.20
26081;DHT22;13991;51.174;4.438;2022-08-20T14:01:44;24.20;92.40
26081;DHT22;13991;51.174;4.438;2022-08-20T14:04:10;24.30;91.80
26081;DHT22;13991;51.174;4.438;2022-08-20T14:06:37;24.10;91.80
26081;DHT22;13991;51.174;4.438;2022-08-20T14:09:09;24.10;92.20
26081;DHT22;13991;51.174;4.438;2022-08-20T14:11:42;24.10;91.70
26081;DHT22;13991;51.174;4.438;2022-08-20T14:14:16;24.50;92.80
26081;DHT22;13991;51.174;4.438;2022-08-20T14:16:43;24.90;89.80
26081;DHT22;13991;51.174;4.438;2022-08-20T14:19:19;25.20;88.00
26081;DHT22;13991;51.174;4.438;2022-08-20T14:21:47;25.60;89.00
26081;DHT22;13991;51.174;4.438;2022-08-20T14:24:21;25.70;88.40
26081;DHT22;13991;51.174;4.438;2022-08-20T14:26:47;25.80;85.80
26081;DHT22;13991;51.174;4.438;2022-08-20T14:29:14;25.50;84.60
26081;DHT22;13991;51.174;4.438;2022-08-20T14:31:54;25.40;85.10
26081;DHT22;13991;51.174;4.438;2022-08-20T14:34:21;25.40;88.10
26081;DHT22;13991;51.174;4.438;2022-08-20T14:36:47;25.30;85.90
26081;DHT22;13991;51.174;4.438;2022-08-20T14:39:13;25.50;85.70
26081;DHT22;13991;51.174;4.438;2022-08-20T14:41:38;25.70;84.50
26081;DHT22;13991;51.174;4.438;2022-08-20T14:44:05;25.70;84.20
26081;DHT22;13991;51.174;4.438;2022-08-20T14:46:31;25.60;84.20
26081;DHT22;13991;51.174;4.438;2022-08-20T14:48:57;25.60;83.10
26081;DHT22;13991;51.174;4.438;2022-08-20T14:51:23;25.60;81.70
26081;DHT22;13991;51.174;4.438;2022-08-20T14:53:49;25.40;81.30
26081;DHT22;13991;51.174;4.438;2022-08-20T14:56:15;25.40;82.00
26081;DHT22;13991;51.174;4.438;2022-08-20T14:58:52;25.30;81.50
26081;DHT22;13991;51.174;4.438;2022-08-20T15:01:17;25.50;81.60
26081;DHT22;13991;51.174;4.438;2022-08-20T15:03:43;25.70;82.40
26081;DHT22;13991;51.174;4.438;2022-08-20T15:06:21;26.00;81.70
26081;DHT22;13991;51.174;4.438;2022-08-20T15:08:50;25.70;80.50
26081;DHT22;13991;51.174;4.438;2022-08-20T15:11:16;25.30;81.40
26081;DHT22;13991;51.174;4.438;2022-08-20T15:13:42;25.40;83.90
26081;DHT22;13991;51.174;4.438;2022-08-20T15:16:11;25.60;83.40
26081;DHT22;13991;51.174;4.438;2022-08-20T15:18:42;25.90;84.00
26081;DHT22;13991;51.174;4.438;2022-08-20T15:21:21;26.10;81.20
26081;DHT22;13991;51.174;4.438;2022-08-20T15:23:54;26.30;80.40
26081;DHT22;13991;51.174;4.438;2022-08-20T15:26:22;26.40;79.40
26081;DHT22;13991;51.174;4.438;2022-08-20T15:28:48;26.00;82.50
26081;DHT22;13991;51.174;4.438;2022-08-20T15:31:22;25.70;82.60
26081;DHT22;13991;51.174;4.438;2022-08-20T15:33:57;25.80;83.70
26081;DHT22;13991;51.174;4.438;2022-08-20T15:36:25;25.80;81.30
26081;DHT22;13991;51.174;4.438;2022-08-20T15:39:16;25.70;79.50
26081;DHT22;13991;51.174;4.438;2022-08-20T15:42:00;25.70;82.60
26081;DHT22;13991;51.174;4.438;2022-08-20T15:44:31;25.40;81.10
26081;DHT22;13991;51.174;4.438;2022-08-20T15:47:21;25.60;82.50
26081;DHT22;13991;51.174;4.438;2022-08-20T15:50:17;25.90;82.00
26081;DHT22;13991;51.174;4.438;2022-08-20T15:52:44;25.90;79.40
26081;DHT22;13991;51.174;4.438;2022-08-20T15:55:17;25.90;78.20
26081;DHT22;13991;51.174;4.438;2022-08-20T15:58:23;25.80;80.00
26081;DHT22;13991;51.174;4.438;2022-08-20T16:01:05;25.30;80.50
26081;DHT22;13991;51.174;4.438;2022-08-20T16:06:26;24.70;81.80